createdAt,value
2022-10-05T00:01:47.259Z,11.70
2022-10-05T00:04:29.234Z,12.30
2022-10-05T00:07:08.630Z,9.00
2022-10-05T00:09:37.313Z,15.40
2022-10-05T00:12:17.377Z,8.50
2022-10-05T00:14:49.350Z,12.60
2022-10-05T00:17:24.462Z,9.40
2022-10-05T00:19:54.381Z,12.40
2022-10-05T00:22:31.300Z,12.10
2022-10-05T00:25:11.004Z,10.80
2022-10-05T00:27:39.792Z,11.20
2022-10-05T00:30:20.770Z,12.40
2022-10-05T00:32:53.026Z,9.70
2022-10-05T00:35:24.591Z,13.10
2022-10-05T00:37:55.950Z,13.50
2022-10-05T00:40:46.130Z,10.90
2022-10-05T00:43:58.238Z,10.10
2022-10-05T00:47:06.036Z,11.50
2022-10-05T00:49:40.764Z,11.70
2022-10-05T00:52:23.889Z,13.60
2022-10-05T00:55:13.976Z,10.10
2022-10-05T00:58:08.159Z,11.10
2022-10-05T01:00:51.607Z,14.40
2022-10-05T01:03:37.379Z,11.50
2022-10-05T01:06:28.798Z,11.90
2022-10-05T01:09:13.254Z,11.60
2022-10-05T01:12:18.805Z,11.00
2022-10-05T01:15:40.229Z,8.80
2022-10-05T01:18:20.690Z,9.60
2022-10-05T01:20:58.388Z,10.70
2022-10-05T01:23:48.578Z,10.40
2022-10-05T01:26:46.814Z,11.40
2022-10-05T01:29:36.228Z,12.50
2022-10-05T01:32:27.442Z,13.80
2022-10-05T01:35:20.867Z,15.60
2022-10-05T01:38:31.480Z,12.80
2022-10-05T01:41:27.710Z,12.70
2022-10-05T01:44:23.773Z,12.60
2022-10-05T01:47:22.426Z,13.80
2022-10-05T01:50:16.104Z,11.90
2022-10-05T01:53:10.694Z,10.60
2022-10-05T01:56:12.658Z,12.80
2022-10-05T01:59:04.691Z,11.50
2022-10-05T02:02:00.704Z,12.70
2022-10-05T02:05:02.027Z,10.10
2022-10-05T02:08:20.933Z,10.90
2022-10-05T02:11:09.388Z,9.80
2022-10-05T02:14:01.262Z,11.40
2022-10-05T02:16:41.397Z,12.00
2022-10-05T02:19:23.571Z,10.70
2022-10-05T02:22:06.902Z,9.60
2022-10-05T02:24:42.208Z,11.00
2022-10-05T02:27:17.583Z,10.80
2022-10-05T02:29:48.833Z,10.40
2022-10-05T02:32:24.180Z,12.90
2022-10-05T02:34:52.806Z,11.00
2022-10-05T02:38:05.166Z,9.70
2022-10-05T02:40:48.804Z,10.70
2022-10-05T02:43:40.838Z,10.10
2022-10-05T02:46:19.636Z,10.40
2022-10-05T02:49:09.747Z,10.90
2022-10-05T02:52:06.389Z,12.40
2022-10-05T02:55:24.843Z,9.80
2022-10-05T02:58:24.045Z,12.90
2022-10-05T03:01:26.003Z,14.20
2022-10-05T03:04:40.162Z,7.30
2022-10-05T03:07:20.113Z,10.20
2022-10-05T03:10:08.256Z,9.60
2022-10-05T03:13:21.392Z,7.60
2022-10-05T03:16:18.727Z,8.00
2022-10-05T03:19:44.567Z,9.00
2022-10-05T03:22:45.003Z,11.20
2022-10-05T03:25:43.892Z,9.60
2022-10-05T03:28:47.599Z,7.30
2022-10-05T03:31:45.674Z,9.90
2022-10-05T03:34:44.985Z,11.00
2022-10-05T03:37:32.858Z,11.70
2022-10-05T03:40:32.323Z,7.50
2022-10-05T03:43:07.051Z,8.00
2022-10-05T03:46:19.297Z,8.50
2022-10-05T03:49:03.716Z,9.60
2022-10-05T03:51:40.177Z,7.60
2022-10-05T03:54:40.306Z,7.40
2022-10-05T03:57:20.255Z,10.10
2022-10-05T04:00:23.864Z,9.50
2022-10-05T04:03:10.672Z,9.10
2022-10-05T04:06:07.622Z,15.30
2022-10-05T04:08:48.421Z,13.80
2022-10-05T04:11:37.541Z,12.10
2022-10-05T04:14:27.032Z,10.50
2022-10-05T04:17:03.399Z,8.30
2022-10-05T04:19:45.699Z,7.90
2022-10-05T04:22:34.456Z,8.70
2022-10-05T04:25:24.647Z,11.00
2022-10-05T04:28:11.197Z,9.10
2022-10-05T04:30:44.139Z,9.50
2022-10-05T04:33:13.953Z,9.80
2022-10-05T04:36:24.630Z,10.90
2022-10-05T04:39:17.990Z,8.50
2022-10-05T04:42:06.644Z,6.80
2022-10-05T04:45:09.225Z,8.10
2022-10-05T04:48:11.802Z,10.00
2022-10-05T04:50:42.946Z,8.20
2022-10-05T04:53:17.573Z,7.80
2022-10-05T04:55:57.419Z,8.90
2022-10-05T04:58:55.701Z,8.40
2022-10-05T05:01:55.002Z,10.90
2022-10-05T05:05:06.287Z,8.70
2022-10-05T05:08:13.885Z,7.60
2022-10-05T05:11:09.552Z,7.50
2022-10-05T05:13:56.929Z,10.10
2022-10-05T05:16:44.860Z,7.90
2022-10-05T05:20:02.499Z,7.30
2022-10-05T05:22:52.795Z,7.60
2022-10-05T05:25:43.494Z,8.00
2022-10-05T05:28:38.240Z,8.80
2022-10-05T05:31:40.966Z,10.20
2022-10-05T05:34:55.435Z,8.20
2022-10-05T05:37:50.028Z,8.80
2022-10-05T05:40:50.979Z,9.90
2022-10-05T05:43:43.824Z,9.40
2022-10-05T05:46:51.102Z,11.50
2022-10-05T05:49:31.386Z,8.30
2022-10-05T05:52:30.993Z,10.50
2022-10-05T05:55:32.950Z,9.30
2022-10-05T05:58:41.065Z,9.70
2022-10-05T06:01:42.074Z,9.30
2022-10-05T06:04:31.797Z,15.10
2022-10-05T06:07:03.657Z,14.90
2022-10-05T06:09:45.803Z,18.90
2022-10-05T06:12:43.320Z,21.70
2022-10-05T06:15:59.790Z,23.20
2022-10-05T06:18:32.318Z,24.10
2022-10-05T06:21:28.215Z,20.10
2022-10-05T06:24:07.041Z,12.70
2022-10-05T06:27:10.052Z,12.90
2022-10-05T06:30:04.653Z,12.80
2022-10-05T06:33:06.956Z,14.50
2022-10-05T06:36:12.254Z,11.00
2022-10-05T06:39:18.698Z,10.30
2022-10-05T06:42:23.307Z,9.70
2022-10-05T06:45:39.650Z,11.00
2022-10-05T06:48:43.276Z,8.80
2022-10-05T06:51:58.282Z,9.10
2022-10-05T06:55:22.668Z,11.00
2022-10-05T06:58:07.848Z,8.70
2022-10-05T07:01:12.264Z,8.40
2022-10-05T07:04:03.646Z,9.30
2022-10-05T07:06:42.953Z,11.60
2022-10-05T07:09:31.894Z,8.20
2022-10-05T07:12:35.019Z,9.70
2022-10-05T07:15:41.355Z,8.20
2022-10-05T07:18:14.764Z,10.70
2022-10-05T07:21:21.385Z,9.10
2022-10-05T07:24:43.092Z,8.40
2022-10-05T07:27:28.571Z,8.70
2022-10-05T07:30:06.968Z,8.00
2022-10-05T07:32:51.132Z,9.00
2022-10-05T07:35:53.511Z,8.40
2022-10-05T07:38:46.258Z,9.80
2022-10-05T07:41:46.482Z,8.90
2022-10-05T07:44:44.626Z,9.30
2022-10-05T07:47:35.776Z,9.50
2022-10-05T07:50:32.302Z,7.90
2022-10-05T07:53:11.445Z,7.50
2022-10-05T07:55:49.544Z,12.20
2022-10-05T07:58:36.059Z,8.50
2022-10-05T08:01:34.154Z,8.70
2022-10-05T08:04:23.299Z,8.60
2022-10-05T08:07:11.478Z,11.20
2022-10-05T08:10:07.616Z,9.90
2022-10-05T08:13:15.474Z,12.20
2022-10-05T08:15:50.499Z,10.00
2022-10-05T08:18:48.993Z,8.40
2022-10-05T08:21:23.312Z,7.40
2022-10-05T08:23:57.530Z,7.50
2022-10-05T08:26:50.072Z,8.90
2022-10-05T08:29:55.111Z,10.10
2022-10-05T08:32:38.850Z,8.20
2022-10-05T08:35:44.298Z,9.00
2022-10-05T08:38:17.396Z,6.20
2022-10-05T08:41:26.726Z,10.00
2022-10-05T08:44:10.465Z,6.80
2022-10-05T08:47:16.173Z,9.30
2022-10-05T08:50:12.805Z,7.00
2022-10-05T08:53:26.400Z,8.90
2022-10-05T08:56:35.232Z,9.50
2022-10-05T08:59:41.396Z,8.40
2022-10-05T09:02:52.451Z,8.60
2022-10-05T09:05:39.795Z,7.50
2022-10-05T09:08:44.834Z,6.50
2022-10-05T09:11:37.197Z,6.20
2022-10-05T09:14:33.610Z,7.10
2022-10-05T09:17:17.043Z,6.30
2022-10-05T09:20:48.604Z,5.10
2022-10-05T09:23:39.512Z,5.60
2022-10-05T09:26:54.074Z,7.50
2022-10-05T09:29:50.724Z,5.60
2022-10-05T09:32:58.007Z,7.80
2022-10-05T09:35:47.480Z,5.50
2022-10-05T09:38:56.203Z,10.60
2022-10-05T09:41:40.967Z,6.30
2022-10-05T09:44:19.177Z,6.50
2022-10-05T09:47:26.979Z,5.30
2022-10-05T09:50:54.342Z,7.30
2022-10-05T09:53:57.332Z,7.40
2022-10-05T09:56:45.769Z,12.50
2022-10-05T09:59:35.361Z,6.70
2022-10-05T10:02:22.479Z,8.70
2022-10-05T10:05:27.719Z,6.80
2022-10-05T10:08:20.982Z,6.80
2022-10-05T10:11:07.804Z,6.30
2022-10-05T10:14:13.244Z,7.50
2022-10-05T10:17:45.213Z,5.40
2022-10-05T10:20:25.573Z,7.70
2022-10-05T10:22:54.563Z,9.50
2022-10-05T10:25:56.529Z,7.00
2022-10-05T10:28:36.210Z,5.60
2022-10-05T10:31:38.962Z,6.60
2022-10-05T10:34:31.197Z,6.70
2022-10-05T10:37:34.906Z,8.40
2022-10-05T10:40:30.013Z,6.70
2022-10-05T10:43:44.161Z,5.20
2022-10-05T10:46:59.798Z,6.50
2022-10-05T10:50:24.246Z,6.10
2022-10-05T10:53:22.723Z,5.80
2022-10-05T10:56:31.964Z,5.30
2022-10-05T10:59:53.589Z,5.70
2022-10-05T11:02:42.675Z,5.20
2022-10-05T11:05:29.980Z,4.70
2022-10-05T11:08:32.454Z,5.50
2022-10-05T11:11:19.470Z,6.10
2022-10-05T11:14:03.048Z,5.00
2022-10-05T11:17:01.590Z,6.30
2022-10-05T11:20:34.278Z,8.40
2022-10-05T11:23:21.707Z,6.50
2022-10-05T11:25:55.816Z,4.80
2022-10-05T11:29:00.855Z,8.00
2022-10-05T11:31:41.821Z,6.00
2022-10-05T11:34:48.302Z,5.80
2022-10-05T11:37:54.057Z,6.90
2022-10-05T11:40:43.734Z,6.10
2022-10-05T11:44:07.092Z,5.10
2022-10-05T11:46:53.262Z,6.90
2022-10-05T11:49:46.780Z,5.10
2022-10-05T11:52:25.797Z,6.30
2022-10-05T11:55:10.749Z,5.60
2022-10-05T11:58:13.975Z,8.20
2022-10-05T12:01:05.685Z,6.50
2022-10-05T12:04:39.907Z,5.10
2022-10-05T12:07:30.105Z,5.60
2022-10-05T12:10:23.667Z,5.70
2022-10-05T12:13:11.426Z,8.70
2022-10-05T12:15:55.688Z,6.70
2022-10-05T12:18:30.494Z,5.40
2022-10-05T12:21:27.959Z,7.20
2022-10-05T12:24:26.804Z,9.20
2022-10-05T12:27:17.334Z,6.10
2022-10-05T12:30:11.106Z,8.40
2022-10-05T12:33:24.261Z,6.20
2022-10-05T12:36:01.466Z,7.80
2022-10-05T12:38:47.112Z,7.00
2022-10-05T12:41:26.071Z,6.50
2022-10-05T12:44:18.372Z,6.50
2022-10-05T12:47:18.187Z,9.80
2022-10-05T12:50:00.737Z,6.50
2022-10-05T12:53:00.322Z,9.20
2022-10-05T12:55:44.253Z,6.90
2022-10-05T12:58:29.528Z,7.00
2022-10-05T13:01:38.731Z,6.50
2022-10-05T13:04:29.064Z,6.80
2022-10-05T13:07:30.921Z,6.60
2022-10-05T13:10:17.015Z,5.70
2022-10-05T13:12:58.400Z,6.20
2022-10-05T13:15:52.845Z,6.30
2022-10-05T13:18:41.241Z,5.40
2022-10-05T13:21:40.861Z,8.90
2022-10-05T13:24:18.959Z,6.40
2022-10-05T13:26:55.437Z,8.30
2022-10-05T13:29:42.750Z,7.60
2022-10-05T13:32:56.185Z,5.70
2022-10-05T13:36:36.343Z,6.90
2022-10-05T13:39:34.727Z,6.20
2022-10-05T13:42:41.110Z,8.20
2022-10-05T13:45:40.529Z,7.20
2022-10-05T13:48:39.398Z,6.50
2022-10-05T13:51:18.841Z,7.00
2022-10-05T13:53:56.430Z,8.60
2022-10-05T13:56:39.964Z,8.60
2022-10-05T13:59:44.288Z,9.40
2022-10-05T14:02:20.643Z,5.40
2022-10-05T14:05:16.171Z,5.90
2022-10-05T14:08:02.980Z,5.40
2022-10-05T14:10:46.821Z,7.50
2022-10-05T14:13:46.787Z,7.50
2022-10-05T14:16:26.639Z,5.90
2022-10-05T14:19:22.152Z,7.80
2022-10-05T14:21:59.605Z,6.60
2022-10-05T14:24:50.830Z,8.60
2022-10-05T14:27:28.200Z,6.30
2022-10-05T14:30:00.724Z,6.20
2022-10-05T14:32:47.893Z,7.80
2022-10-05T14:35:22.373Z,6.20
2022-10-05T14:38:02.630Z,8.00
2022-10-05T14:40:37.094Z,6.10
2022-10-05T14:43:14.893Z,7.00
2022-10-05T14:46:23.156Z,9.50
2022-10-05T14:49:24.567Z,6.40
2022-10-05T14:51:55.035Z,7.80
2022-10-05T14:54:45.692Z,9.10
2022-10-05T14:57:33.832Z,6.80
2022-10-05T15:00:07.025Z,7.30
2022-10-05T15:02:57.832Z,7.60
2022-10-05T15:06:01.880Z,7.30
2022-10-05T15:09:17.665Z,9.90
2022-10-05T15:12:17.858Z,5.60
2022-10-05T15:14:47.736Z,9.30
2022-10-05T15:17:43.208Z,7.30
2022-10-05T15:21:06.452Z,6.20
2022-10-05T15:23:57.874Z,8.40
2022-10-05T15:26:54.229Z,6.80
2022-10-05T15:30:09.485Z,7.50
2022-10-05T15:32:44.302Z,7.40
2022-10-05T15:35:27.849Z,6.40
2022-10-05T15:38:14.356Z,10.80
2022-10-05T15:40:59.168Z,6.40
2022-10-05T15:44:07.441Z,5.60
2022-10-05T15:46:57.871Z,7.60
2022-10-05T15:49:48.705Z,7.40
2022-10-05T15:52:51.418Z,7.90
2022-10-05T15:55:52.462Z,7.60
2022-10-05T15:58:44.701Z,8.40
2022-10-05T16:01:28.816Z,9.00
2022-10-05T16:04:59.005Z,6.70
2022-10-05T16:08:08.736Z,6.60
2022-10-05T16:10:44.378Z,7.50
2022-10-05T16:13:36.005Z,6.30
2022-10-05T16:16:16.395Z,5.20
2022-10-05T16:19:25.904Z,5.70
2022-10-05T16:22:34.334Z,5.50
2022-10-05T16:25:26.355Z,7.00
2022-10-05T16:28:34.913Z,10.40
2022-10-05T16:31:19.321Z,13.80
2022-10-05T16:33:56.946Z,23.30
2022-10-05T16:37:10.127Z,44.10
2022-10-05T16:40:20.413Z,14.90
2022-10-05T16:43:13.473Z,11.20
2022-10-05T16:45:52.898Z,12.00
2022-10-05T16:48:26.942Z,11.90
2022-10-05T16:51:17.724Z,8.90
2022-10-05T16:54:15.799Z,9.60
2022-10-05T16:56:57.184Z,10.70
2022-10-05T16:59:58.023Z,8.80
2022-10-05T17:03:00.223Z,11.90
2022-10-05T17:05:56.334Z,23.60
2022-10-05T17:08:54.016Z,24.50
2022-10-05T17:11:39.303Z,34.10
2022-10-05T17:14:31.301Z,30.60
2022-10-05T17:17:23.905Z,26.30
2022-10-05T17:20:14.553Z,44.80
2022-10-05T17:22:51.061Z,102.80
2022-10-05T17:25:51.084Z,100.70
2022-10-05T17:28:59.815Z,96.70
2022-10-05T17:31:32.526Z,92.30
2022-10-05T17:34:07.168Z,70.80
2022-10-05T17:36:49.894Z,30.60
2022-10-05T17:39:56.397Z,25.30
2022-10-05T17:42:34.564Z,18.80
2022-10-05T17:45:15.333Z,15.20
2022-10-05T17:48:01.324Z,18.00
2022-10-05T17:51:04.217Z,15.70
2022-10-05T17:54:04.377Z,16.40
2022-10-05T17:56:58.102Z,16.40
2022-10-05T18:00:02.196Z,10.40
2022-10-05T18:02:43.150Z,15.70
2022-10-05T18:05:13.325Z,11.40
2022-10-05T18:07:51.226Z,12.80
2022-10-05T18:10:31.233Z,10.40
2022-10-05T18:13:00.080Z,10.70
2022-10-05T18:15:31.323Z,11.90
2022-10-05T18:18:32.560Z,11.90
2022-10-05T18:21:33.470Z,13.50
2022-10-05T18:24:36.713Z,11.90
2022-10-05T18:27:17.568Z,9.90
2022-10-05T18:30:08.132Z,12.20
2022-10-05T18:32:57.363Z,9.70
2022-10-05T18:35:37.388Z,9.80
2022-10-05T18:38:34.541Z,11.20
2022-10-05T18:41:18.794Z,10.60
2022-10-05T18:44:31.759Z,10.90
2022-10-05T18:47:22.832Z,10.00
2022-10-05T18:50:16.940Z,9.80
2022-10-05T18:53:30.857Z,10.10
2022-10-05T18:56:26.474Z,12.30
2022-10-05T18:59:42.602Z,10.70
2022-10-05T19:02:37.496Z,9.00
2022-10-05T19:05:49.046Z,8.70
2022-10-05T19:08:41.742Z,14.60
2022-10-05T19:11:57.504Z,9.80
2022-10-05T19:14:51.790Z,11.40
2022-10-05T19:17:55.497Z,10.60
2022-10-05T19:20:37.702Z,13.80
2022-10-05T19:23:43.082Z,11.40
2022-10-05T19:26:28.321Z,11.60
2022-10-05T19:30:02.754Z,10.40
2022-10-05T19:32:46.591Z,10.30
2022-10-05T19:35:40.057Z,12.30
2022-10-05T19:38:39.667Z,19.50
2022-10-05T19:42:10.920Z,11.90
2022-10-05T19:45:10.634Z,13.90
2022-10-05T19:48:15.877Z,12.40
2022-10-05T19:51:11.596Z,9.70
2022-10-05T19:53:47.252Z,13.20
2022-10-05T19:56:21.352Z,8.50
2022-10-05T19:58:52.161Z,10.70
2022-10-05T20:01:37.126Z,11.50
2022-10-05T20:04:07.288Z,10.50
2022-10-05T20:06:35.767Z,12.80
2022-10-05T20:09:21.777Z,11.10
2022-10-05T20:11:54.444Z,13.10
2022-10-05T20:14:33.060Z,13.70
2022-10-05T20:17:48.750Z,12.70
2022-10-05T20:20:38.575Z,10.70
2022-10-05T20:23:28.260Z,10.90
2022-10-05T20:26:15.328Z,22.70
2022-10-05T20:28:44.764Z,13.20
2022-10-05T20:31:14.866Z,10.30
2022-10-05T20:33:43.427Z,9.00
2022-10-05T20:36:12.115Z,10.20
2022-10-05T20:38:41.383Z,11.90
2022-10-05T20:41:10.002Z,12.70
2022-10-05T20:43:39.600Z,13.40
2022-10-05T20:46:08.193Z,10.80
2022-10-05T20:48:36.885Z,11.20
2022-10-05T20:51:05.571Z,15.10
2022-10-05T20:53:58.822Z,10.80
2022-10-05T20:56:27.517Z,12.60
2022-10-05T20:58:56.348Z,10.60
2022-10-05T21:01:30.566Z,10.60
2022-10-05T21:03:59.096Z,10.40
2022-10-05T21:06:29.833Z,13.10
2022-10-05T21:08:58.415Z,10.90
2022-10-05T21:11:28.843Z,10.30
2022-10-05T21:13:59.952Z,10.10
2022-10-05T21:16:30.912Z,10.30
2022-10-05T21:18:59.507Z,12.60
2022-10-05T21:21:28.353Z,11.80
2022-10-05T21:23:57.151Z,13.10
2022-10-05T21:26:26.897Z,10.80
2022-10-05T21:28:56.815Z,9.90
2022-10-05T21:31:26.834Z,9.90
2022-10-05T21:33:56.105Z,10.70
2022-10-05T21:36:24.935Z,10.10
2022-10-05T21:38:55.213Z,12.00
2022-10-05T21:41:24.033Z,12.70
2022-10-05T21:43:53.054Z,11.90
2022-10-05T21:46:25.548Z,11.70
2022-10-05T21:48:55.993Z,9.00
2022-10-05T21:51:39.462Z,9.40
2022-10-05T21:54:17.483Z,11.10
2022-10-05T21:56:51.692Z,10.90
2022-10-05T21:59:24.772Z,9.30
2022-10-05T22:01:53.357Z,8.90
2022-10-05T22:04:22.658Z,9.20
2022-10-05T22:06:51.545Z,8.30
2022-10-05T22:09:20.028Z,9.80
2022-10-05T22:11:49.537Z,9.30
2022-10-05T22:14:18.774Z,13.20
2022-10-05T22:16:47.481Z,9.80
2022-10-05T22:19:20.711Z,8.80
2022-10-05T22:21:49.192Z,7.60
2022-10-05T22:24:17.676Z,9.40
2022-10-05T22:26:49.070Z,8.70
2022-10-05T22:29:18.176Z,12.40
2022-10-05T22:31:49.112Z,10.70
2022-10-05T22:34:18.663Z,9.00
2022-10-05T22:36:47.968Z,10.70
2022-10-05T22:39:17.985Z,8.20
2022-10-05T22:41:47.077Z,9.80
2022-10-05T22:44:15.969Z,8.30
2022-10-05T22:46:44.757Z,11.30
2022-10-05T22:49:13.469Z,9.50
2022-10-05T22:51:42.133Z,10.10
2022-10-05T22:54:11.233Z,8.30
2022-10-05T22:56:40.422Z,7.70
2022-10-05T22:59:09.114Z,9.40
2022-10-05T23:01:37.931Z,8.40
2022-10-05T23:04:09.041Z,8.60
2022-10-05T23:06:37.833Z,8.60
2022-10-05T23:09:07.027Z,10.60
2022-10-05T23:11:35.509Z,7.70
2022-10-05T23:14:04.297Z,8.20
2022-10-05T23:16:33.033Z,7.20
2022-10-05T23:19:01.670Z,9.30
2022-10-05T23:21:30.869Z,8.40
2022-10-05T23:23:59.421Z,7.40
2022-10-05T23:26:28.034Z,8.70
2022-10-05T23:28:56.618Z,8.10
2022-10-05T23:31:30.037Z,8.30
2022-10-05T23:33:58.496Z,7.40
2022-10-05T23:36:32.978Z,9.30
2022-10-05T23:39:01.501Z,9.20
2022-10-05T23:41:30.084Z,7.10
2022-10-05T23:43:58.565Z,8.10
2022-10-05T23:46:27.252Z,7.30
2022-10-05T23:48:55.835Z,7.70
2022-10-05T23:51:24.316Z,8.00
2022-10-05T23:53:53.004Z,7.10
2022-10-05T23:56:21.490Z,8.90
2022-10-05T23:58:49.966Z,9.50
